sensor_id;sensor_type;location;lat;lon;timestamp;pressure;altitude;pressure_sealevel;temperature;humidity
78685;BME280;68002;52.310;6.990;2023-06-19T00:00:16;100473.50;;;23.34;42.36
78685;BME280;68002;52.310;6.990;2023-06-19T00:02:43;100462.81;;;23.32;42.65
78685;BME280;68002;52.310;6.990;2023-06-19T00:05:09;100457.13;;;23.34;42.63
78685;BME280;68002;52.310;6.990;2023-06-19T00:07:36;100459.25;;;23.32;42.76
78685;BME280;68002;52.310;6.990;2023-06-19T00:10:02;100454.88;;;23.31;42.81
78685;BME280;68002;52.310;6.990;2023-06-19T00:12:27;100460.09;;;23.32;42.92
78685;BME280;68002;52.310;6.990;2023-06-19T00:14:53;100467.22;;;23.33;42.58
78685;BME280;68002;52.310;6.990;2023-06-19T00:17:18;100477.09;;;23.34;42.68
78685;BME280;68002;52.310;6.990;2023-06-19T00:19:44;100474.72;;;23.38;42.70
78685;BME280;68002;52.310;6.990;2023-06-19T00:22:09;100473.88;;;23.37;42.97
78685;BME280;68002;52.310;6.990;2023-06-19T00:24:34;100471.38;;;23.36;42.91
78685;BME280;68002;52.310;6.990;2023-06-19T00:26:59;100466.16;;;23.34;42.94
78685;BME280;68002;52.310;6.990;2023-06-19T00:29:25;100465.56;;;23.32;42.87
78685;BME280;68002;52.310;6.990;2023-06-19T00:31:50;100470.63;;;23.29;43.19
78685;BME280;68002;52.310;6.990;2023-06-19T00:34:15;100452.06;;;23.19;43.26
78685;BME280;68002;52.310;6.990;2023-06-19T00:36:40;100463.31;;;23.29;43.33
78685;BME280;68002;52.310;6.990;2023-06-19T00:39:06;100467.28;;;23.27;43.34
78685;BME280;68002;52.310;6.990;2023-06-19T00:41:32;100469.16;;;23.26;43.46
78685;BME280;68002;52.310;6.990;2023-06-19T00:43:58;100459.78;;;23.22;43.61
78685;BME280;68002;52.310;6.990;2023-06-19T00:46:24;100461.31;;;23.18;43.49
78685;BME280;68002;52.310;6.990;2023-06-19T00:48:49;100467.69;;;23.12;44.05
78685;BME280;68002;52.310;6.990;2023-06-19T00:51:14;100463.97;;;23.07;44.04
78685;BME280;68002;52.310;6.990;2023-06-19T00:53:39;100460.41;;;23.06;44.14
78685;BME280;68002;52.310;6.990;2023-06-19T00:56:05;100461.53;;;22.98;44.49
78685;BME280;68002;52.310;6.990;2023-06-19T00:58:30;100462.25;;;22.94;44.59
78685;BME280;68002;52.310;6.990;2023-06-19T01:00:56;100465.41;;;22.91;44.55
78685;BME280;68002;52.310;6.990;2023-06-19T01:03:21;100466.97;;;22.87;44.55
78685;BME280;68002;52.310;6.990;2023-06-19T01:05:47;100470.28;;;22.89;44.74
78685;BME280;68002;52.310;6.990;2023-06-19T01:10:55;100473.09;;;22.82;44.97
78685;BME280;68002;52.310;6.990;2023-06-19T01:13:41;100464.16;;;22.75;46.45
78685;BME280;68002;52.310;6.990;2023-06-19T01:16:09;100471.56;;;22.68;45.63
78685;BME280;68002;52.310;6.990;2023-06-19T01:18:36;100482.09;;;22.65;46.41
78685;BME280;68002;52.310;6.990;2023-06-19T01:21:18;100484.09;;;22.51;47.46
78685;BME280;68002;52.310;6.990;2023-06-19T01:23:44;100481.94;;;22.35;47.97
78685;BME280;68002;52.310;6.990;2023-06-19T01:26:11;100483.28;;;22.26;48.01
78685;BME280;68002;52.310;6.990;2023-06-19T01:28:38;100487.66;;;22.27;47.88
78685;BME280;68002;52.310;6.990;2023-06-19T01:31:10;100484.28;;;22.32;47.91
78685;BME280;68002;52.310;6.990;2023-06-19T01:33:38;100482.78;;;22.36;47.59
78685;BME280;68002;52.310;6.990;2023-06-19T01:36:05;100470.75;;;22.43;47.50
78685;BME280;68002;52.310;6.990;2023-06-19T01:38:31;100478.88;;;22.50;47.50
78685;BME280;68002;52.310;6.990;2023-06-19T01:40:57;100489.72;;;22.56;47.33
78685;BME280;68002;52.310;6.990;2023-06-19T01:43:24;100484.31;;;22.50;47.60
78685;BME280;68002;52.310;6.990;2023-06-19T01:45:51;100487.19;;;22.55;47.50
78685;BME280;68002;52.310;6.990;2023-06-19T01:48:16;100491.63;;;22.56;47.52
78685;BME280;68002;52.310;6.990;2023-06-19T01:50:46;100487.00;;;22.56;47.85
78685;BME280;68002;52.310;6.990;2023-06-19T01:53:11;100492.00;;;22.59;47.65
78685;BME280;68002;52.310;6.990;2023-06-19T01:55:37;100483.00;;;22.59;48.08
78685;BME280;68002;52.310;6.990;2023-06-19T01:58:02;100480.88;;;22.61;48.47
78685;BME280;68002;52.310;6.990;2023-06-19T02:00:27;100489.66;;;22.63;48.08
78685;BME280;68002;52.310;6.990;2023-06-19T02:02:52;100487.56;;;22.65;48.45
78685;BME280;68002;52.310;6.990;2023-06-19T02:05:17;100494.88;;;22.64;48.81
78685;BME280;68002;52.310;6.990;2023-06-19T02:07:43;100486.09;;;22.62;48.82
78685;BME280;68002;52.310;6.990;2023-06-19T02:10:08;100482.16;;;22.58;48.74
78685;BME280;68002;52.310;6.990;2023-06-19T02:12:33;100485.88;;;22.64;48.86
78685;BME280;68002;52.310;6.990;2023-06-19T02:14:59;100492.25;;;22.58;48.67
78685;BME280;68002;52.310;6.990;2023-06-19T02:17:24;100493.06;;;22.58;48.83
78685;BME280;68002;52.310;6.990;2023-06-19T02:19:49;100494.38;;;22.56;49.03
78685;BME280;68002;52.310;6.990;2023-06-19T02:22:14;100485.34;;;22.55;49.29
78685;BME280;68002;52.310;6.990;2023-06-19T02:24:40;100487.03;;;22.50;49.24
78685;BME280;68002;52.310;6.990;2023-06-19T02:27:06;100489.78;;;22.50;49.93
78685;BME280;68002;52.310;6.990;2023-06-19T02:29:31;100494.38;;;22.49;49.58
78685;BME280;68002;52.310;6.990;2023-06-19T02:31:56;100497.78;;;22.45;49.68
78685;BME280;68002;52.310;6.990;2023-06-19T02:34:21;100495.31;;;22.43;49.99
78685;BME280;68002;52.310;6.990;2023-06-19T02:36:46;100494.88;;;22.40;49.85
78685;BME280;68002;52.310;6.990;2023-06-19T02:39:12;100494.50;;;22.36;49.87
78685;BME280;68002;52.310;6.990;2023-06-19T02:41:37;100492.47;;;22.32;50.13
78685;BME280;68002;52.310;6.990;2023-06-19T02:44:02;100506.94;;;22.32;50.35
78685;BME280;68002;52.310;6.990;2023-06-19T02:46:27;100506.09;;;22.32;50.54
78685;BME280;68002;52.310;6.990;2023-06-19T02:48:53;100504.78;;;22.34;50.36
78685;BME280;68002;52.310;6.990;2023-06-19T02:51:18;100509.03;;;22.30;50.33
78685;BME280;68002;52.310;6.990;2023-06-19T02:53:43;100504.88;;;22.28;50.63
78685;BME280;68002;52.310;6.990;2023-06-19T02:56:08;100505.31;;;22.25;50.39
78685;BME280;68002;52.310;6.990;2023-06-19T02:58:33;100507.44;;;22.23;50.70
78685;BME280;68002;52.310;6.990;2023-06-19T03:00:59;100504.47;;;22.24;50.60
78685;BME280;68002;52.310;6.990;2023-06-19T03:03:24;100521.06;;;22.23;50.77
78685;BME280;68002;52.310;6.990;2023-06-19T03:05:49;100515.59;;;22.23;50.47
78685;BME280;68002;52.310;6.990;2023-06-19T03:08:14;100511.19;;;22.22;50.66
78685;BME280;68002;52.310;6.990;2023-06-19T03:10:39;100511.19;;;22.22;50.47
78685;BME280;68002;52.310;6.990;2023-06-19T03:13:05;100515.44;;;22.18;50.66
78685;BME280;68002;52.310;6.990;2023-06-19T03:15:30;100522.53;;;22.19;50.75
78685;BME280;68002;52.310;6.990;2023-06-19T03:17:55;100513.91;;;22.22;50.73
78685;BME280;68002;52.310;6.990;2023-06-19T03:20:20;100512.72;;;22.18;50.50
78685;BME280;68002;52.310;6.990;2023-06-19T03:22:46;100519.38;;;22.22;50.73
78685;BME280;68002;52.310;6.990;2023-06-19T03:25:11;100513.97;;;22.15;50.82
78685;BME280;68002;52.310;6.990;2023-06-19T03:27:37;100528.88;;;22.13;51.12
78685;BME280;68002;52.310;6.990;2023-06-19T03:30:03;100531.56;;;22.19;50.78
78685;BME280;68002;52.310;6.990;2023-06-19T03:32:28;100528.00;;;22.19;50.99
78685;BME280;68002;52.310;6.990;2023-06-19T03:34:54;100523.81;;;22.16;51.27
78685;BME280;68002;52.310;6.990;2023-06-19T03:37:19;100524.50;;;22.12;51.19
78685;BME280;68002;52.310;6.990;2023-06-19T03:39:44;100530.09;;;22.17;51.67
78685;BME280;68002;52.310;6.990;2023-06-19T03:42:09;100537.66;;;22.15;51.73
78685;BME280;68002;52.310;6.990;2023-06-19T03:44:35;100543.56;;;22.12;51.73
78685;BME280;68002;52.310;6.990;2023-06-19T03:47:00;100538.53;;;22.09;52.11
78685;BME280;68002;52.310;6.990;2023-06-19T03:49:25;100535.03;;;22.02;52.21
78685;BME280;68002;52.310;6.990;2023-06-19T03:51:51;100537.97;;;22.07;52.75
78685;BME280;68002;52.310;6.990;2023-06-19T03:54:16;100538.81;;;22.01;52.73
78685;BME280;68002;52.310;6.990;2023-06-19T03:56:42;100546.16;;;22.00;52.79
78685;BME280;68002;52.310;6.990;2023-06-19T03:59:07;100544.91;;;21.96;53.10
78685;BME280;68002;52.310;6.990;2023-06-19T04:01:32;100549.09;;;21.98;53.36
78685;BME280;68002;52.310;6.990;2023-06-19T04:03:57;100545.16;;;21.94;53.60
78685;BME280;68002;52.310;6.990;2023-06-19T04:06:22;100553.53;;;21.93;54.04
78685;BME280;68002;52.310;6.990;2023-06-19T04:08:48;100539.75;;;21.88;54.03
78685;BME280;68002;52.310;6.990;2023-06-19T04:11:13;100545.63;;;21.85;54.29
78685;BME280;68002;52.310;6.990;2023-06-19T04:13:38;100541.47;;;21.76;55.08
78685;BME280;68002;52.310;6.990;2023-06-19T04:16:03;100538.97;;;21.74;54.96
78685;BME280;68002;52.310;6.990;2023-06-19T04:18:29;100542.13;;;21.71;55.63
78685;BME280;68002;52.310;6.990;2023-06-19T04:20:54;100550.25;;;21.78;55.42
78685;BME280;68002;52.310;6.990;2023-06-19T04:23:19;100555.06;;;21.76;55.69
78685;BME280;68002;52.310;6.990;2023-06-19T04:25:44;100563.03;;;21.84;55.74
78685;BME280;68002;52.310;6.990;2023-06-19T04:28:09;100562.22;;;21.70;56.28
78685;BME280;68002;52.310;6.990;2023-06-19T04:30:35;100541.97;;;21.66;56.10
78685;BME280;68002;52.310;6.990;2023-06-19T04:33:00;100564.31;;;21.68;56.65
78685;BME280;68002;52.310;6.990;2023-06-19T04:35:26;100566.63;;;21.71;56.75
78685;BME280;68002;52.310;6.990;2023-06-19T04:37:52;100580.66;;;21.68;57.17
78685;BME280;68002;52.310;6.990;2023-06-19T04:40:18;100571.06;;;21.59;57.25
78685;BME280;68002;52.310;6.990;2023-06-19T04:42:43;100584.69;;;21.59;57.39
78685;BME280;68002;52.310;6.990;2023-06-19T04:45:08;100591.66;;;21.55;57.61
78685;BME280;68002;52.310;6.990;2023-06-19T04:47:34;100596.25;;;21.48;58.27
78685;BME280;68002;52.310;6.990;2023-06-19T04:49:59;100589.38;;;21.46;58.59
78685;BME280;68002;52.310;6.990;2023-06-19T04:52:25;100597.31;;;21.47;58.55
78685;BME280;68002;52.310;6.990;2023-06-19T04:54:50;100604.25;;;21.43;59.03
78685;BME280;68002;52.310;6.990;2023-06-19T04:57:15;100601.53;;;21.43;58.57
78685;BME280;68002;52.310;6.990;2023-06-19T04:59:42;100610.13;;;21.34;59.53
78685;BME280;68002;52.310;6.990;2023-06-19T05:02:07;100603.66;;;21.35;59.85
78685;BME280;68002;52.310;6.990;2023-06-19T05:04:32;100610.56;;;21.31;59.93
78685;BME280;68002;52.310;6.990;2023-06-19T05:06:58;100624.59;;;21.21;60.29
78685;BME280;68002;52.310;6.990;2023-06-19T05:09:24;100621.66;;;21.23;60.43
78685;BME280;68002;52.310;6.990;2023-06-19T05:11:49;100626.31;;;21.22;60.67
78685;BME280;68002;52.310;6.990;2023-06-19T05:14:14;100623.75;;;21.21;60.70
78685;BME280;68002;52.310;6.990;2023-06-19T05:16:39;100623.34;;;21.17;61.39
78685;BME280;68002;52.310;6.990;2023-06-19T05:19:05;100637.19;;;21.22;61.02
78685;BME280;68002;52.310;6.990;2023-06-19T05:21:30;100630.50;;;21.18;61.70
78685;BME280;68002;52.310;6.990;2023-06-19T05:23:55;100642.63;;;21.22;61.83
78685;BME280;68002;52.310;6.990;2023-06-19T05:26:20;100641.38;;;21.18;62.08
78685;BME280;68002;52.310;6.990;2023-06-19T05:28:47;100648.91;;;21.16;62.29
78685;BME280;68002;52.310;6.990;2023-06-19T05:31:12;100644.72;;;21.20;62.50
78685;BME280;68002;52.310;6.990;2023-06-19T05:33:37;100641.13;;;21.26;62.50
78685;BME280;68002;52.310;6.990;2023-06-19T05:36:03;100658.28;;;21.33;62.57
78685;BME280;68002;52.310;6.990;2023-06-19T05:38:28;100652.59;;;21.41;62.20
78685;BME280;68002;52.310;6.990;2023-06-19T05:40:53;100646.56;;;21.33;62.64
78685;BME280;68002;52.310;6.990;2023-06-19T05:43:18;100652.84;;;21.27;62.59
78685;BME280;68002;52.310;6.990;2023-06-19T05:45:44;100653.91;;;21.26;62.88
78685;BME280;68002;52.310;6.990;2023-06-19T05:48:09;100643.69;;;21.08;63.29
78685;BME280;68002;52.310;6.990;2023-06-19T05:50:35;100651.00;;;21.14;63.64
78685;BME280;68002;52.310;6.990;2023-06-19T05:53:00;100663.53;;;21.22;63.34
78685;BME280;68002;52.310;6.990;2023-06-19T05:55:25;100661.03;;;21.20;63.41
78685;BME280;68002;52.310;6.990;2023-06-19T05:57:50;100655.16;;;21.30;63.24
78685;BME280;68002;52.310;6.990;2023-06-19T06:00:16;100659.53;;;21.31;63.52
78685;BME280;68002;52.310;6.990;2023-06-19T06:02:42;100654.28;;;21.36;63.60
78685;BME280;68002;52.310;6.990;2023-06-19T06:05:08;100669.13;;;21.53;63.08
78685;BME280;68002;52.310;6.990;2023-06-19T06:07:33;100660.88;;;21.72;62.66
78685;BME280;68002;52.310;6.990;2023-06-19T06:09:58;100657.94;;;21.74;62.30
78685;BME280;68002;52.310;6.990;2023-06-19T06:12:23;100660.50;;;21.62;62.65
78685;BME280;68002;52.310;6.990;2023-06-19T06:14:49;100675.38;;;21.66;62.90
78685;BME280;68002;52.310;6.990;2023-06-19T06:17:14;100670.28;;;21.83;62.51
78685;BME280;68002;52.310;6.990;2023-06-19T06:19:39;100675.44;;;21.97;61.98
78685;BME280;68002;52.310;6.990;2023-06-19T06:22:05;100682.13;;;22.02;61.56
78685;BME280;68002;52.310;6.990;2023-06-19T06:24:30;100689.50;;;21.94;62.02
78685;BME280;68002;52.310;6.990;2023-06-19T06:26:55;100680.91;;;21.97;61.54
78685;BME280;68002;52.310;6.990;2023-06-19T06:29:20;100680.72;;;21.92;61.41
78685;BME280;68002;52.310;6.990;2023-06-19T06:31:46;100695.75;;;22.02;61.70
78685;BME280;68002;52.310;6.990;2023-06-19T06:34:12;100685.31;;;21.98;61.62
78685;BME280;68002;52.310;6.990;2023-06-19T06:36:37;100702.91;;;22.03;62.17
78685;BME280;68002;52.310;6.990;2023-06-19T06:39:02;100702.69;;;21.97;61.82
78685;BME280;68002;52.310;6.990;2023-06-19T06:41:28;100699.59;;;21.87;62.14
78685;BME280;68002;52.310;6.990;2023-06-19T06:43:53;100694.19;;;21.74;62.52
78685;BME280;68002;52.310;6.990;2023-06-19T06:46:18;100702.34;;;21.74;62.85
78685;BME280;68002;52.310;6.990;2023-06-19T06:48:43;100701.72;;;21.85;62.56
78685;BME280;68002;52.310;6.990;2023-06-19T06:51:08;100706.31;;;21.78;62.89
78685;BME280;68002;52.310;6.990;2023-06-19T06:53:34;100709.69;;;21.80;62.61
78685;BME280;68002;52.310;6.990;2023-06-19T06:55:59;100715.91;;;22.01;62.66
78685;BME280;68002;52.310;6.990;2023-06-19T06:58:24;100712.09;;;22.02;62.68
78685;BME280;68002;52.310;6.990;2023-06-19T07:00:50;100717.16;;;21.98;62.70
78685;BME280;68002;52.310;6.990;2023-06-19T07:03:15;100712.72;;;22.04;62.45
78685;BME280;68002;52.310;6.990;2023-06-19T07:05:40;100716.69;;;22.08;62.90
78685;BME280;68002;52.310;6.990;2023-06-19T07:08:05;100720.22;;;22.21;62.28
78685;BME280;68002;52.310;6.990;2023-06-19T07:10:31;100711.44;;;22.13;62.42
78685;BME280;68002;52.310;6.990;2023-06-19T07:12:56;100716.19;;;22.30;62.01
78685;BME280;68002;52.310;6.990;2023-06-19T07:15:21;100701.97;;;22.53;61.53
78685;BME280;68002;52.310;6.990;2023-06-19T07:17:47;100715.00;;;22.82;61.00
78685;BME280;68002;52.310;6.990;2023-06-19T07:20:12;100715.41;;;23.10;59.76
78685;BME280;68002;52.310;6.990;2023-06-19T07:22:37;100714.44;;;23.29;59.31
78685;BME280;68002;52.310;6.990;2023-06-19T07:25:03;100730.66;;;23.42;58.75
78685;BME280;68002;52.310;6.990;2023-06-19T07:27:28;100722.34;;;23.55;58.08
78685;BME280;68002;52.310;6.990;2023-06-19T07:29:54;100730.09;;;23.58;57.95
78685;BME280;68002;52.310;6.990;2023-06-19T07:32:19;100738.47;;;23.39;58.53
78685;BME280;68002;52.310;6.990;2023-06-19T07:34:44;100734.84;;;23.45;58.50
78685;BME280;68002;52.310;6.990;2023-06-19T07:37:09;100745.13;;;23.49;58.82
78685;BME280;68002;52.310;6.990;2023-06-19T07:39:34;100741.59;;;23.42;58.69
78685;BME280;68002;52.310;6.990;2023-06-19T07:42:00;100738.13;;;23.53;58.76
78685;BME280;68002;52.310;6.990;2023-06-19T07:44:25;100738.69;;;23.37;58.66
78685;BME280;68002;52.310;6.990;2023-06-19T07:46:50;100742.84;;;23.64;58.60
78685;BME280;68002;52.310;6.990;2023-06-19T07:49:15;100749.38;;;23.63;58.21
78685;BME280;68002;52.310;6.990;2023-06-19T07:51:41;100741.53;;;23.49;57.85
78685;BME280;68002;52.310;6.990;2023-06-19T07:54:06;100742.03;;;23.39;58.40
78685;BME280;68002;52.310;6.990;2023-06-19T07:56:31;100762.22;;;23.38;58.27
78685;BME280;68002;52.310;6.990;2023-06-19T07:58:57;100759.94;;;23.35;57.98
78685;BME280;68002;52.310;6.990;2023-06-19T08:01:22;100763.47;;;23.11;58.65
78685;BME280;68002;52.310;6.990;2023-06-19T08:03:47;100760.03;;;22.98;59.19
78685;BME280;68002;52.310;6.990;2023-06-19T08:06:12;100763.69;;;22.85;59.73
78685;BME280;68002;52.310;6.990;2023-06-19T08:08:37;100760.97;;;22.85;59.61
78685;BME280;68002;52.310;6.990;2023-06-19T08:11:03;100767.97;;;22.99;59.60
78685;BME280;68002;52.310;6.990;2023-06-19T08:13:28;100764.75;;;23.09;58.94
78685;BME280;68002;52.310;6.990;2023-06-19T08:15:53;100762.69;;;23.04;58.86
78685;BME280;68002;52.310;6.990;2023-06-19T08:18:18;100767.09;;;23.05;58.96
78685;BME280;68002;52.310;6.990;2023-06-19T08:20:43;100778.78;;;23.12;59.44
78685;BME280;68002;52.310;6.990;2023-06-19T08:23:09;100776.94;;;23.37;58.74
78685;BME280;68002;52.310;6.990;2023-06-19T08:25:34;100778.66;;;23.56;58.65
78685;BME280;68002;52.310;6.990;2023-06-19T08:28:00;100783.38;;;23.67;57.52
78685;BME280;68002;52.310;6.990;2023-06-19T08:30:25;100782.81;;;23.59;57.60
78685;BME280;68002;52.310;6.990;2023-06-19T08:32:50;100793.25;;;23.44;58.10
78685;BME280;68002;52.310;6.990;2023-06-19T08:35:15;100797.03;;;23.18;58.81
78685;BME280;68002;52.310;6.990;2023-06-19T08:37:41;100795.66;;;23.03;59.02
78685;BME280;68002;52.310;6.990;2023-06-19T08:40:06;100796.66;;;22.83;59.73
78685;BME280;68002;52.310;6.990;2023-06-19T08:42:32;100797.13;;;22.74;60.36
78685;BME280;68002;52.310;6.990;2023-06-19T08:44:57;100805.47;;;22.79;60.54
78685;BME280;68002;52.310;6.990;2023-06-19T08:47:22;100820.59;;;22.75;60.66
78685;BME280;68002;52.310;6.990;2023-06-19T08:49:47;100802.91;;;22.84;60.00
78685;BME280;68002;52.310;6.990;2023-06-19T08:52:12;100807.56;;;22.77;60.02
78685;BME280;68002;52.310;6.990;2023-06-19T08:54:38;100807.56;;;22.83;59.76
78685;BME280;68002;52.310;6.990;2023-06-19T08:57:03;100808.34;;;22.90;59.90
78685;BME280;68002;52.310;6.990;2023-06-19T08:59:30;100812.91;;;22.96;60.13
78685;BME280;68002;52.310;6.990;2023-06-19T09:01:55;100807.88;;;23.25;59.35
78685;BME280;68002;52.310;6.990;2023-06-19T09:04:25;100809.84;;;23.42;58.49
78685;BME280;68002;52.310;6.990;2023-06-19T09:06:53;100828.63;;;23.32;57.78
78685;BME280;68002;52.310;6.990;2023-06-19T09:09:20;100825.03;;;23.07;58.85
78685;BME280;68002;52.310;6.990;2023-06-19T09:12:06;100824.66;;;22.97;59.62
78685;BME280;68002;52.310;6.990;2023-06-19T09:14:36;100814.53;;;23.04;59.73
78685;BME280;68002;52.310;6.990;2023-06-19T09:17:02;100809.47;;;23.08;59.13
78685;BME280;68002;52.310;6.990;2023-06-19T09:19:27;100822.41;;;23.19;58.88
78685;BME280;68002;52.310;6.990;2023-06-19T09:21:53;100824.03;;;23.33;58.51
78685;BME280;68002;52.310;6.990;2023-06-19T09:24:18;100829.16;;;23.47;58.21
78685;BME280;68002;52.310;6.990;2023-06-19T09:26:43;100818.13;;;23.60;57.36
78685;BME280;68002;52.310;6.990;2023-06-19T09:29:12;100822.84;;;23.71;57.29
78685;BME280;68002;52.310;6.990;2023-06-19T09:31:37;100831.97;;;23.83;56.04
78685;BME280;68002;52.310;6.990;2023-06-19T09:34:03;100818.47;;;24.25;55.47
78685;BME280;68002;52.310;6.990;2023-06-19T09:36:31;100822.19;;;24.66;55.25
78685;BME280;68002;52.310;6.990;2023-06-19T09:38:59;100830.22;;;25.21;52.63
78685;BME280;68002;52.310;6.990;2023-06-19T09:41:25;100815.78;;;25.43;50.97
78685;BME280;68002;52.310;6.990;2023-06-19T09:43:54;100820.09;;;25.74;49.66
78685;BME280;68002;52.310;6.990;2023-06-19T09:46:21;100819.47;;;25.60;49.84
78685;BME280;68002;52.310;6.990;2023-06-19T09:48:47;100812.56;;;25.69;50.12
78685;BME280;68002;52.310;6.990;2023-06-19T09:51:18;100821.97;;;25.73;49.23
78685;BME280;68002;52.310;6.990;2023-06-19T09:53:45;100820.81;;;25.93;49.20
78685;BME280;68002;52.310;6.990;2023-06-19T09:56:12;100841.44;;;25.83;49.49
78685;BME280;68002;52.310;6.990;2023-06-19T09:58:38;100833.91;;;25.67;50.19
78685;BME280;68002;52.310;6.990;2023-06-19T10:01:04;100829.78;;;25.35;50.94
78685;BME280;68002;52.310;6.990;2023-06-19T10:03:32;100839.69;;;24.95;52.38
78685;BME280;68002;52.310;6.990;2023-06-19T10:05:59;100838.94;;;24.88;52.93
78685;BME280;68002;52.310;6.990;2023-06-19T10:08:29;100842.31;;;25.02;52.83
78685;BME280;68002;52.310;6.990;2023-06-19T10:10:55;100841.44;;;25.19;52.20
78685;BME280;68002;52.310;6.990;2023-06-19T10:13:20;100840.56;;;25.48;49.77
78685;BME280;68002;52.310;6.990;2023-06-19T10:15:45;100846.28;;;25.58;49.45
78685;BME280;68002;52.310;6.990;2023-06-19T10:18:15;100850.97;;;26.04;48.32
78685;BME280;68002;52.310;6.990;2023-06-19T10:20:40;100853.88;;;26.49;46.77
78685;BME280;68002;52.310;6.990;2023-06-19T10:23:06;100853.66;;;26.90;46.10
78685;BME280;68002;52.310;6.990;2023-06-19T10:25:34;100846.88;;;27.09;44.46
78685;BME280;68002;52.310;6.990;2023-06-19T10:28:00;100856.78;;;26.82;44.98
78685;BME280;68002;52.310;6.990;2023-06-19T10:30:26;100854.75;;;26.38;45.27
78685;BME280;68002;52.310;6.990;2023-06-19T10:32:51;100867.75;;;26.19;45.91
78685;BME280;68002;52.310;6.990;2023-06-19T10:35:17;100869.19;;;26.10;45.16
78685;BME280;68002;52.310;6.990;2023-06-19T10:37:43;100870.25;;;26.21;45.39
78685;BME280;68002;52.310;6.990;2023-06-19T10:40:09;100875.25;;;26.35;43.30
78685;BME280;68002;52.310;6.990;2023-06-19T10:42:36;100871.38;;;26.71;42.27
78685;BME280;68002;52.310;6.990;2023-06-19T10:45:07;100878.94;;;26.92;40.50
78685;BME280;68002;52.310;6.990;2023-06-19T10:47:33;100870.41;;;26.77;41.84
78685;BME280;68002;52.310;6.990;2023-06-19T10:49:58;100866.22;;;26.63;41.83
78685;BME280;68002;52.310;6.990;2023-06-19T10:52:23;100861.78;;;26.85;41.66
78685;BME280;68002;52.310;6.990;2023-06-19T10:54:55;100869.72;;;26.98;41.08
78685;BME280;68002;52.310;6.990;2023-06-19T10:57:30;100864.53;;;27.13;40.41
78685;BME280;68002;52.310;6.990;2023-06-19T10:59:56;100861.31;;;27.33;40.02
78685;BME280;68002;52.310;6.990;2023-06-19T11:02:22;100867.53;;;27.12;39.28
78685;BME280;68002;52.310;6.990;2023-06-19T11:04:48;100867.19;;;27.08;40.13
78685;BME280;68002;52.310;6.990;2023-06-19T11:07:13;100852.72;;;27.29;39.75
78685;BME280;68002;52.310;6.990;2023-06-19T11:09:38;100853.03;;;27.44;40.01
78685;BME280;68002;52.310;6.990;2023-06-19T11:12:04;100852.91;;;28.06;38.91
78685;BME280;68002;52.310;6.990;2023-06-19T11:14:30;100856.09;;;28.36;37.79
78685;BME280;68002;52.310;6.990;2023-06-19T11:16:55;100852.13;;;28.27;36.97
78685;BME280;68002;52.310;6.990;2023-06-19T11:19:21;100861.13;;;28.22;37.51
78685;BME280;68002;52.310;6.990;2023-06-19T11:21:49;100864.59;;;28.13;38.38
78685;BME280;68002;52.310;6.990;2023-06-19T11:24:15;100866.31;;;28.19;38.21
78685;BME280;68002;52.310;6.990;2023-06-19T11:26:45;100866.28;;;27.97;38.17
78685;BME280;68002;52.310;6.990;2023-06-19T11:29:30;100865.94;;;27.77;37.89
78685;BME280;68002;52.310;6.990;2023-06-19T11:32:09;100860.94;;;28.07;37.61
78685;BME280;68002;52.310;6.990;2023-06-19T11:34:35;100857.19;;;28.35;37.93
78685;BME280;68002;52.310;6.990;2023-06-19T11:37:01;100858.75;;;28.47;37.09
78685;BME280;68002;52.310;6.990;2023-06-19T11:39:27;100868.31;;;28.45;36.41
78685;BME280;68002;52.310;6.990;2023-06-19T11:41:52;100856.22;;;28.24;36.78
78685;BME280;68002;52.310;6.990;2023-06-19T11:44:18;100844.00;;;27.99;37.20
78685;BME280;68002;52.310;6.990;2023-06-19T11:46:43;100849.69;;;27.75;37.94
78685;BME280;68002;52.310;6.990;2023-06-19T11:49:12;100848.22;;;28.23;37.39
78685;BME280;68002;52.310;6.990;2023-06-19T11:51:37;100850.44;;;28.64;36.24
78685;BME280;68002;52.310;6.990;2023-06-19T11:54:06;100856.28;;;28.94;36.43
78685;BME280;68002;52.310;6.990;2023-06-19T11:56:31;100847.88;;;29.32;35.17
78685;BME280;68002;52.310;6.990;2023-06-19T11:58:57;100850.16;;;29.40;33.57
78685;BME280;68002;52.310;6.990;2023-06-19T12:01:22;100863.78;;;29.52;31.98
78685;BME280;68002;52.310;6.990;2023-06-19T12:03:47;100848.31;;;29.51;32.23
78685;BME280;68002;52.310;6.990;2023-06-19T12:06:12;100852.81;;;29.30;32.23
78685;BME280;68002;52.310;6.990;2023-06-19T12:08:38;100856.44;;;29.36;33.31
78685;BME280;68002;52.310;6.990;2023-06-19T12:11:03;100859.97;;;29.26;32.98
78685;BME280;68002;52.310;6.990;2023-06-19T12:13:28;100865.91;;;28.92;34.07
78685;BME280;68002;52.310;6.990;2023-06-19T12:15:53;100863.31;;;28.58;34.64
78685;BME280;68002;52.310;6.990;2023-06-19T12:18:19;100855.16;;;28.47;35.36
78685;BME280;68002;52.310;6.990;2023-06-19T12:20:44;100863.47;;;28.52;35.32
78685;BME280;68002;52.310;6.990;2023-06-19T12:23:09;100865.19;;;28.36;35.27
78685;BME280;68002;52.310;6.990;2023-06-19T12:25:34;100864.34;;;28.36;35.39
78685;BME280;68002;52.310;6.990;2023-06-19T12:27:59;100872.19;;;28.44;35.30
78685;BME280;68002;52.310;6.990;2023-06-19T12:30:25;100870.22;;;28.23;35.39
78685;BME280;68002;52.310;6.990;2023-06-19T12:32:50;100869.78;;;28.31;35.79
78685;BME280;68002;52.310;6.990;2023-06-19T12:35:15;100868.41;;;28.12;35.93
78685;BME280;68002;52.310;6.990;2023-06-19T12:37:40;100873.19;;;28.38;35.74
78685;BME280;68002;52.310;6.990;2023-06-19T12:40:06;100873.44;;;28.53;36.04
78685;BME280;68002;52.310;6.990;2023-06-19T12:42:31;100869.44;;;28.87;35.52
78685;BME280;68002;52.310;6.990;2023-06-19T12:44:57;100880.09;;;29.05;34.39